Time;durP1;ratioP1;P1;durP2;ratioP2;P2;SDS_P1;SDS_P2;PMS_P1;PMS_P2;Temp;Humidity;BMP_temperature;BMP_pressure;BME280_temperature;BME280_humidity;BME280_pressure;Samples;Min_cycle;Max_cycle;Signal;HPM_P1;HPM_P2
2022/09/02 00:01:13;;;;;;;5.07;4.68;;;;;;;14.22;75.15;95668.22;4979304;28;20180;-80
2022/09/02 00:03:42;;;;;;;4.70;4.30;;;;;;;14.19;75.11;95669.41;4969959;28;20251;-81
2022/09/02 00:06:08;;;;;;;4.93;4.50;;;;;;;14.12;75.38;95668.44;4958360;28;20236;-81
2022/09/02 00:08:34;;;;;;;4.90;4.40;;;;;;;14.11;75.22;95667.59;4943084;28;20196;-81
2022/09/02 00:11:02;;;;;;;4.57;4.13;;;;;;;14.14;75.16;95666.47;4959450;28;20196;-81
2022/09/02 00:13:28;;;;;;;4.72;4.32;;;;;;;14.12;75.22;95668.44;4943494;28;20228;-81
2022/09/02 00:15:54;;;;;;;5.20;4.72;;;;;;;14.00;75.25;95664.53;4958364;28;20216;-81
2022/09/02 00:18:19;;;;;;;4.88;4.47;;;;;;;14.00;75.49;95659.31;4958343;28;20200;-80
2022/09/02 00:20:46;;;;;;;4.25;3.95;;;;;;;13.97;75.73;95655.25;4958733;28;20195;-81
2022/09/02 00:23:12;;;;;;;4.85;4.43;;;;;;;14.03;75.45;95654.56;4960075;28;20247;-81
2022/09/02 00:25:38;;;;;;;5.50;4.15;;;;;;;14.04;75.37;95650.16;4958751;28;20711;-81
2022/09/02 00:28:04;;;;;;;4.63;4.32;;;;;;;14.00;75.60;95651.47;4930900;29;20189;-81
2022/09/02 00:30:29;;;;;;;5.57;4.38;;;;;;;13.91;75.57;95645.47;4959074;28;20333;-80
2022/09/02 00:32:55;;;;;;;4.20;3.90;;;;;;;13.87;75.60;95645.00;4959327;28;20196;-80
2022/09/02 00:35:20;;;;;;;5.50;4.65;;;;;;;13.73;76.71;95644.84;4940947;28;20193;-81
2022/09/02 00:37:45;;;;;;;4.78;4.20;;;;;;;13.76;76.71;95652.31;4942352;28;20192;-80
2022/09/02 00:40:11;;;;;;;4.95;4.53;;;;;;;13.71;77.00;95639.78;4958011;28;20188;-80
2022/09/02 00:42:37;;;;;;;4.77;4.37;;;;;;;13.74;76.75;95644.66;4941558;28;20185;-81
2022/09/02 00:45:04;;;;;;;5.55;4.65;;;;;;;13.75;76.89;95646.28;4957335;28;20209;-81
2022/09/02 00:47:30;;;;;;;5.37;4.77;;;;;;;13.73;76.81;95643.03;4958083;28;20670;-81
2022/09/02 00:49:57;;;;;;;4.50;4.17;;;;;;;13.69;76.54;95641.72;4936197;28;20198;-81
2022/09/02 00:52:28;;;;;;;5.70;4.75;;;;;;;13.64;77.07;95638.81;4958242;28;20219;-80
2022/09/02 00:55:09;;;;;;;7.23;4.47;;;;;;;13.65;76.89;95635.22;4956970;28;20189;-80
2022/09/02 00:57:42;;;;;;;5.03;4.53;;;;;;;13.68;76.68;95637.47;4957290;28;20238;-80
2022/09/02 01:00:10;;;;;;;6.93;4.27;;;;;;;13.62;76.52;95640.75;4942163;28;20582;-81
2022/09/02 01:02:37;;;;;;;4.70;4.30;;;;;;;13.55;76.87;95639.78;4941254;28;20728;-81
2022/09/02 01:05:04;;;;;;;4.40;3.97;;;;;;;13.61;77.03;95641.75;4966073;28;20739;-81
2022/09/02 01:07:32;;;;;;;4.77;4.33;;;;;;;13.66;76.30;95644.66;4940580;28;20211;-80
2022/09/02 01:09:58;;;;;;;4.30;4.00;;;;;;;13.55;76.89;95645.00;4957450;28;20203;-80
2022/09/02 01:12:26;;;;;;;4.80;4.40;;;;;;;13.52;76.42;95634.91;4956755;28;20204;-81
2022/09/02 01:14:52;;;;;;;4.50;3.97;;;;;;;13.48;76.71;95638.81;4957019;28;20189;-80
2022/09/02 01:17:18;;;;;;;4.67;4.17;;;;;;;13.45;77.09;95639.13;4940335;28;20928;-80
2022/09/02 01:19:47;;;;;;;4.83;4.20;;;;;;;13.36;77.14;95633.09;4957140;28;20208;-80
2022/09/02 01:22:17;;;;;;;5.00;4.37;;;;;;;13.43;77.09;95639.31;4931091;28;20256;-81
2022/09/02 01:24:42;;;;;;;4.82;4.30;;;;;;;13.36;77.54;95640.13;4955627;28;20223;-81
2022/09/02 01:27:08;;;;;;;5.10;4.40;;;;;;;13.36;77.41;95632.28;4935570;28;20299;-81
2022/09/02 01:29:33;;;;;;;4.82;4.32;;;;;;;13.36;76.98;95642.72;4957002;28;20509;-81
2022/09/02 01:31:58;;;;;;;5.77;4.37;;;;;;;13.32;77.63;95635.19;4956945;28;20247;-81
2022/09/02 01:34:24;;;;;;;5.67;4.53;;;;;;;13.39;77.46;95634.56;4938422;28;20248;-80
2022/09/02 01:36:50;;;;;;;4.53;4.20;;;;;;;13.32;77.68;95637.00;4933699;28;20212;-81
2022/09/02 01:39:15;;;;;;;3.90;3.60;;;;;;;13.34;77.76;95632.47;4938276;28;20188;-81
2022/09/02 01:41:41;;;;;;;5.23;4.20;;;;;;;13.27;77.40;95634.06;4956370;28;20189;-81
2022/09/02 01:44:07;;;;;;;4.07;3.77;;;;;;;13.25;77.91;95631.63;4955439;28;20283;-81
2022/09/02 01:46:33;;;;;;;4.47;4.07;;;;;;;13.26;77.83;95630.66;4946510;28;20267;-81
2022/09/02 01:48:58;;;;;;;4.67;4.20;;;;;;;13.27;77.46;95626.25;4940955;28;20199;-80
2022/09/02 01:51:24;;;;;;;4.25;3.83;;;;;;;13.23;77.57;95620.53;4932301;28;20200;-80
2022/09/02 01:53:49;;;;;;;4.90;4.30;;;;;;;13.23;77.26;95624.94;4956148;28;20200;-80
2022/09/02 01:56:14;;;;;;;4.38;4.07;;;;;;;13.20;77.58;95626.06;4955533;28;20312;-80
2022/09/02 01:58:40;;;;;;;5.20;4.33;;;;;;;13.18;77.49;95620.19;4937844;28;20209;-80
2022/09/02 02:01:06;;;;;;;6.65;4.35;;;;;;;13.11;77.41;95621.78;4956144;28;20563;-79
2022/09/02 02:03:32;;;;;;;4.78;3.92;;;;;;;13.10;77.69;95627.19;4956238;28;20218;-80
2022/09/02 02:05:58;;;;;;;4.00;3.70;;;;;;;13.05;77.47;95627.66;4938583;28;20303;-80
2022/09/02 02:08:23;;;;;;;4.85;4.05;;;;;;;13.14;77.01;95626.69;4955299;28;20243;-80
2022/09/02 02:10:49;;;;;;;4.30;3.93;;;;;;;13.17;76.50;95622.97;4939802;28;20189;-80
2022/09/02 02:13:15;;;;;;;3.85;3.53;;;;;;;13.08;76.41;95616.91;4955789;28;20189;-80
2022/09/02 02:15:41;;;;;;;4.93;4.00;;;;;;;13.17;76.31;95617.75;4962154;28;20208;-79
2022/09/02 02:18:07;;;;;;;5.57;3.93;;;;;;;13.08;76.47;95611.69;4939340;28;20192;-78
2022/09/02 02:20:32;;;;;;;4.73;3.77;;;;;;;13.20;76.18;95618.25;4955565;28;20625;-80
2022/09/02 02:22:57;;;;;;;4.50;4.10;;;;;;;13.16;75.82;95618.69;4956129;28;20279;-80
2022/09/02 02:25:23;;;;;;;4.40;3.60;;;;;;;13.17;75.85;95617.75;4934394;28;20243;-80
2022/09/02 02:27:48;;;;;;;5.80;3.87;;;;;;;13.13;75.95;95614.63;4973304;28;20208;-78
2022/09/02 02:30:15;;;;;;;4.93;3.87;;;;;;;13.12;76.10;95609.56;4971791;28;20188;-80
2022/09/02 02:32:41;;;;;;;3.90;3.50;;;;;;;13.16;75.62;95611.69;4939859;28;20188;-81
2022/09/02 02:35:06;;;;;;;4.20;3.63;;;;;;;13.11;76.23;95610.56;4939045;28;20271;-80
2022/09/02 02:37:32;;;;;;;6.63;3.60;;;;;;;13.15;75.54;95606.63;4939519;28;20212;-80
2022/09/02 02:39:57;;;;;;;5.97;3.40;;;;;;;13.09;76.02;95605.50;4955161;28;20192;-79
2022/09/02 02:42:22;;;;;;;4.73;3.67;;;;;;;13.06;76.55;95598.00;4939008;28;20180;-79
2022/09/02 02:44:48;;;;;;;5.73;4.20;;;;;;;13.00;76.72;95602.06;4954353;28;20219;-80
2022/09/02 02:47:15;;;;;;;3.90;3.60;;;;;;;12.98;76.49;95595.38;4955131;28;20244;-80
2022/09/02 02:49:41;;;;;;;4.37;3.97;;;;;;;12.96;76.86;95603.34;4937106;28;20291;-81
2022/09/02 02:52:07;;;;;;;4.23;3.70;;;;;;;12.98;76.26;95600.59;4954798;28;20732;-80
2022/09/02 02:54:32;;;;;;;4.10;3.70;;;;;;;12.98;76.70;95605.78;4954034;28;20276;-80
2022/09/02 02:56:58;;;;;;;8.47;4.33;;;;;;;12.90;76.55;95605.81;4973528;28;20204;-81
2022/09/02 02:59:24;;;;;;;4.20;3.80;;;;;;;12.89;77.12;95606.75;4949077;28;20198;-80
2022/09/02 03:01:50;;;;;;;4.07;3.77;;;;;;;12.87;76.82;95609.53;5000508;28;20173;-80
2022/09/02 03:04:15;;;;;;;4.30;3.80;;;;;;;12.80;77.36;95605.94;4982733;28;20193;-80
2022/09/02 03:06:40;;;;;;;4.77;3.80;;;;;;;12.74;77.47;95604.78;4968246;28;20219;-80
2022/09/02 03:09:06;;;;;;;5.27;4.03;;;;;;;12.75;77.34;95600.41;4983902;28;20251;-80
2022/09/02 03:11:31;;;;;;;4.47;3.90;;;;;;;12.74;77.31;95596.97;4971503;28;20657;-81
2022/09/02 03:13:57;;;;;;;4.00;3.60;;;;;;;12.68;77.97;95604.59;4961757;28;20575;-80
2022/09/02 03:16:22;;;;;;;5.97;3.90;;;;;;;12.63;77.92;95601.66;4977036;28;20681;-81
2022/09/02 03:18:48;;;;;;;5.20;3.83;;;;;;;12.70;78.20;95598.25;4960615;28;20195;-80
2022/09/02 03:21:14;;;;;;;5.53;4.20;;;;;;;12.56;78.94;95600.69;4960205;28;20184;-79
2022/09/02 03:23:40;;;;;;;4.37;3.80;;;;;;;12.52;79.00;95601.94;4942798;28;20180;-80
2022/09/02 03:26:18;;;;;;;5.03;4.17;;;;;;;12.43;79.16;95601.09;4943333;28;20212;-81
2022/09/02 03:28:43;;;;;;;4.23;3.90;;;;;;;12.38;78.97;95598.19;4957496;28;20184;-80
2022/09/02 03:31:14;;;;;;;4.67;4.20;;;;;;;12.45;78.77;95597.38;4959584;28;20192;-80
2022/09/02 03:33:39;;;;;;;3.90;3.60;;;;;;;12.42;78.51;95596.88;4959248;28;20197;-79
2022/09/02 03:36:05;;;;;;;3.97;3.17;;;;;;;12.37;78.60;95593.94;4940581;28;20213;-80
2022/09/02 03:38:30;;;;;;;4.10;3.50;;;;;;;12.34;78.56;95587.25;4943785;28;20192;-81
2022/09/02 03:40:55;;;;;;;4.73;3.57;;;;;;;12.34;78.39;95595.06;4956610;28;20212;-82
2022/09/02 03:43:21;;;;;;;3.60;3.30;;;;;;;12.31;78.87;95597.16;4944002;28;20188;-81
2022/09/02 03:45:46;;;;;;;3.97;3.57;;;;;;;12.28;78.48;95587.03;4974591;28;20209;-81
2022/09/02 03:48:12;;;;;;;4.27;3.67;;;;;;;12.22;78.36;95591.09;4934864;28;20248;-81
2022/09/02 03:50:40;;;;;;;4.03;3.43;;;;;;;12.21;78.42;95591.28;4958375;28;20251;-81
2022/09/02 03:53:07;;;;;;;4.43;3.83;;;;;;;12.19;78.58;95594.00;4957299;28;20176;-81
2022/09/02 03:55:32;;;;;;;3.70;3.30;;;;;;;12.13;78.76;95595.47;4957685;28;20196;-81
2022/09/02 03:57:58;;;;;;;5.03;3.53;;;;;;;12.11;78.97;95594.00;4958511;28;20188;-80
2022/09/02 04:00:27;;;;;;;5.40;3.43;;;;;;;12.14;79.22;95593.69;4942208;28;20192;-81
2022/09/02 04:02:54;;;;;;;3.93;3.63;;;;;;;12.07;79.47;95592.66;4940750;28;20189;-80
2022/09/02 04:05:21;;;;;;;3.70;3.40;;;;;;;12.01;79.50;95599.28;4973537;28;20641;-80
2022/09/02 04:07:46;;;;;;;5.70;4.00;;;;;;;12.01;79.59;95594.09;4952935;28;20648;-81
2022/09/02 04:10:11;;;;;;;4.07;3.67;;;;;;;12.01;79.08;95590.66;4942316;28;20195;-81
2022/09/02 04:12:37;;;;;;;3.73;3.40;;;;;;;12.04;79.41;95588.59;4942778;28;20184;-81
2022/09/02 04:15:04;;;;;;;4.00;3.60;;;;;;;12.03;79.24;95592.16;4940531;28;20196;-81
2022/09/02 04:17:30;;;;;;;5.97;3.60;;;;;;;12.04;79.35;95595.59;4975313;28;20215;-81
2022/09/02 04:19:55;;;;;;;4.57;3.27;;;;;;;11.96;79.88;95592.94;4957949;28;20200;-80
2022/09/02 04:22:20;;;;;;;4.30;3.63;;;;;;;11.89;79.79;95584.94;4957631;28;20188;-81
2022/09/02 04:24:46;;;;;;;4.10;3.50;;;;;;;11.90;79.92;95589.16;4940969;28;20217;-80
2022/09/02 04:27:11;;;;;;;4.93;3.90;;;;;;;11.99;79.54;95587.41;4957548;28;20216;-78
2022/09/02 04:29:36;;;;;;;4.13;3.60;;;;;;;12.02;79.46;95590.53;4957764;28;20191;-80
2022/09/02 04:32:02;;;;;;;5.23;3.87;;;;;;;11.97;79.99;95595.38;4957501;28;20323;-81
2022/09/02 04:34:28;;;;;;;4.43;4.03;;;;;;;11.94;79.90;95597.50;4940305;28;20188;-82
2022/09/02 04:36:53;;;;;;;4.90;4.00;;;;;;;11.89;80.39;95595.34;4940564;28;20204;-81
2022/09/02 04:39:19;;;;;;;7.13;3.97;;;;;;;11.89;80.78;95593.53;4957116;28;20195;-81
2022/09/02 04:41:44;;;;;;;4.90;4.10;;;;;;;11.85;80.54;95591.41;4957937;28;20244;-81
2022/09/02 04:44:09;;;;;;;4.50;3.60;;;;;;;11.81;80.74;95593.50;4956959;28;20189;-81
2022/09/02 04:46:35;;;;;;;4.87;4.10;;;;;;;11.84;81.23;95592.41;4956470;28;20208;-79
2022/09/02 04:49:02;;;;;;;5.67;4.30;;;;;;;11.93;80.70;95596.69;4955301;28;20196;-80
2022/09/02 04:51:27;;;;;;;4.73;4.33;;;;;;;11.90;80.66;95594.34;4956621;28;20189;-80
2022/09/02 04:53:53;;;;;;;6.97;4.00;;;;;;;11.96;80.18;95601.56;4956034;28;20759;-80
2022/09/02 04:56:22;;;;;;;6.60;4.10;;;;;;;11.96;80.17;95595.53;4940296;28;20211;-80
2022/09/02 04:58:51;;;;;;;4.33;3.93;;;;;;;11.95;80.22;95601.72;4954249;28;20191;-80
2022/09/02 05:01:19;;;;;;;5.80;4.30;;;;;;;12.00;79.96;95600.25;4957094;28;20267;-80
2022/09/02 05:03:46;;;;;;;4.67;3.97;;;;;;;12.09;79.56;95598.53;4936436;28;20378;-79
2022/09/02 05:06:16;;;;;;;3.90;3.60;;;;;;;12.17;79.10;95596.78;4956000;28;20235;-80
2022/09/02 05:08:41;;;;;;;5.33;4.20;;;;;;;12.11;79.34;95594.81;4953740;28;20188;-79
2022/09/02 05:11:08;;;;;;;3.90;3.60;;;;;;;12.12;79.27;95593.03;4940547;28;20184;-84
2022/09/02 05:13:34;;;;;;;5.33;3.90;;;;;;;12.17;78.81;95596.78;4940419;28;20177;-83
2022/09/02 05:23:40;;;;;;;4.03;3.73;;;;;;;12.40;77.96;95585.81;5008448;28;20214;-79
2022/09/02 05:26:06;;;;;;;4.20;3.87;;;;;;;12.38;77.94;95577.34;4999662;28;20660;-78
2022/09/02 05:28:32;;;;;;;4.20;3.80;;;;;;;12.45;78.15;95584.34;4961048;28;20188;-80
2022/09/02 05:31:04;;;;;;;4.07;3.70;;;;;;;12.56;77.81;95583.25;4976593;28;20191;-81
2022/09/02 05:33:30;;;;;;;4.23;3.73;;;;;;;12.56;77.72;95583.25;4975904;28;20200;-80
2022/09/02 05:35:55;;;;;;;3.90;3.40;;;;;;;12.60;77.33;95581.13;4975280;28;20231;-80
2022/09/02 05:38:21;;;;;;;5.03;3.87;;;;;;;12.73;76.98;95582.31;4957892;28;20660;-80
2022/09/02 05:40:52;;;;;;;4.93;3.53;;;;;;;12.82;76.56;95579.72;5057507;28;20561;-80
2022/09/02 05:43:18;;;;;;;3.47;3.17;;;;;;;12.85;76.42;95582.00;5038822;28;20205;-80
2022/09/02 05:45:43;;;;;;;4.20;3.80;;;;;;;12.86;76.34;95586.25;5034070;28;20220;-79
2022/09/02 05:50:52;;;;;;;4.27;3.30;;;;;;;13.00;75.58;95589.03;5050475;28;20319;-81
2022/09/02 05:53:18;;;;;;;3.93;3.57;;;;;;;13.03;75.21;95595.72;5060962;28;20276;-81
2022/09/02 05:55:43;;;;;;;3.90;3.30;;;;;;;13.14;75.24;95605.81;5040639;28;20228;-81
2022/09/02 05:58:08;;;;;;;3.73;3.30;;;;;;;13.15;74.76;95596.19;5029467;28;20662;-81
2022/09/02 06:00:34;;;;;;;4.13;2.80;;;;;;;13.16;75.00;95598.66;5038821;28;20202;-81
2022/09/02 06:02:59;;;;;;;4.17;2.77;;;;;;;13.26;74.59;95604.56;5039311;28;20179;-81
2022/09/02 06:05:25;;;;;;;3.27;2.97;;;;;;;13.27;74.36;95598.38;5044261;28;20241;-82
2022/09/02 06:07:51;;;;;;;3.23;3.00;;;;;;;13.38;74.19;95596.41;5056671;28;20254;-82
2022/09/02 06:10:16;;;;;;;3.63;3.30;;;;;;;13.32;73.95;95597.88;5058698;28;20944;-82
2022/09/02 06:12:41;;;;;;;3.40;3.07;;;;;;;13.44;73.82;95599.19;5054659;28;20219;-81
2022/09/02 06:15:07;;;;;;;4.37;3.60;;;;;;;13.46;73.81;95596.41;5032702;28;20205;-81
2022/09/02 06:17:32;;;;;;;7.03;2.80;;;;;;;13.56;73.67;95595.25;5031098;28;20206;-81
2022/09/02 06:20:01;;;;;;;5.27;2.93;;;;;;;13.56;73.74;95595.25;5071226;28;20221;-82
2022/09/02 06:22:26;;;;;;;5.73;3.43;;;;;;;13.70;73.09;95595.59;5065675;28;20236;-82
2022/09/02 06:24:51;;;;;;;5.60;3.47;;;;;;;13.72;72.91;95584.00;5080990;28;20186;-82
2022/09/02 06:27:17;;;;;;;3.27;3.07;;;;;;;13.79;72.21;95595.41;5068728;28;20210;-82
2022/09/02 06:29:42;;;;;;;3.20;2.90;;;;;;;13.80;72.52;95602.25;5039410;28;20182;-81
2022/09/02 06:32:07;;;;;;;3.40;3.10;;;;;;;13.85;72.13;95597.31;5048635;28;20203;-82
2022/09/02 06:34:34;;;;;;;3.00;2.80;;;;;;;13.85;71.66;95596.53;5066722;28;20186;-82
2022/09/02 06:36:59;;;;;;;2.93;2.60;;;;;;;13.88;71.54;95594.41;5063313;28;20193;-82
2022/09/02 06:39:24;;;;;;;3.20;2.90;;;;;;;14.05;71.62;95589.97;5060170;28;20653;-82
2022/09/02 06:41:50;;;;;;;4.07;2.97;;;;;;;13.98;71.87;95594.22;5039881;28;20727;-82
2022/09/02 06:44:17;;;;;;;3.23;2.97;;;;;;;14.05;71.77;95589.97;5051171;28;20182;-82
2022/09/02 06:46:46;;;;;;;4.33;2.70;;;;;;;14.12;71.32;95600.53;5049646;28;20572;-82
2022/09/02 06:49:14;;;;;;;5.13;3.17;;;;;;;14.15;71.20;95592.38;5034525;28;20627;-82
2022/09/02 06:51:41;;;;;;;3.90;2.80;;;;;;;14.27;71.79;95593.63;5030130;28;20585;-82
2022/09/02 06:54:09;;;;;;;3.47;3.17;;;;;;;14.35;70.91;95587.56;5041622;28;20235;-82
2022/09/02 06:56:34;;;;;;;6.97;3.03;;;;;;;14.35;70.20;95588.38;5042631;28;20202;-85
2022/09/02 06:59:00;;;;;;;4.45;3.17;;;;;;;14.49;69.66;95591.28;5019955;28;20233;-82
2022/09/02 07:01:28;;;;;;;4.50;2.97;;;;;;;14.57;69.92;95591.25;5027582;28;20229;-86
2022/09/02 07:06:41;;;;;;;5.23;2.77;;;;;;;14.71;69.27;95583.50;5035038;28;20297;-85
2022/09/02 07:09:09;;;;;;;4.03;2.70;;;;;;;14.84;69.01;95585.56;5024511;28;20440;-87
2022/09/02 07:11:38;;;;;;;4.10;2.90;;;;;;;14.91;68.72;95578.63;5035122;28;20296;-86
2022/09/02 07:14:04;;;;;;;3.90;2.70;;;;;;;14.95;68.46;95577.31;5041741;28;20189;-84
2022/09/02 07:16:33;;;;;;;4.32;2.55;;;;;;;15.12;68.61;95580.63;5029400;28;20245;-84
2022/09/02 07:19:00;;;;;;;4.37;2.63;;;;;;;15.13;67.97;95584.06;5047846;28;20758;-85
2022/09/02 07:27:38;;;;;;;2.80;2.60;;;;;;;15.44;67.29;95576.91;5030179;28;20229;-81
2022/09/02 07:30:06;;;;;;;6.45;2.72;;;;;;;15.39;67.37;95573.22;4996427;28;20190;-81
2022/09/02 07:32:32;;;;;;;5.43;2.63;;;;;;;15.50;65.69;95570.19;5008008;28;20597;-81
2022/09/02 07:34:57;;;;;;;3.67;2.35;;;;;;;15.69;64.74;95579.34;5012820;28;20199;-80
2022/09/02 07:37:23;;;;;;;3.15;2.53;;;;;;;15.83;65.08;95582.00;5013542;28;20261;-81
2022/09/02 07:39:48;;;;;;;4.82;2.70;;;;;;;15.80;64.53;95584.97;5022384;28;20710;-81
2022/09/02 07:42:14;;;;;;;5.90;2.47;;;;;;;15.84;64.54;95588.06;5013102;28;20221;-81
2022/09/02 07:44:40;;;;;;;3.03;2.40;;;;;;;15.82;63.99;95585.63;5012651;28;20285;-81
2022/09/02 07:47:05;;;;;;;3.20;2.20;;;;;;;15.92;64.49;95580.13;5007408;28;20202;-80
2022/09/02 07:49:31;;;;;;;4.05;2.40;;;;;;;16.06;64.96;95592.38;5029767;28;20205;-82
2022/09/02 07:51:56;;;;;;;2.80;2.42;;;;;;;16.17;63.59;95588.53;5012305;28;20202;-82
2022/09/02 07:54:23;;;;;;;3.58;2.45;;;;;;;16.27;64.59;95580.41;4996445;28;21027;-80
2022/09/02 07:56:49;;;;;;;2.55;2.25;;;;;;;16.38;63.61;95582.53;5010815;28;20702;-81
2022/09/02 07:59:15;;;;;;;2.90;2.53;;;;;;;16.47;62.72;95576.22;5012944;28;20309;-82
2022/09/02 08:01:44;;;;;;;2.35;2.13;;;;;;;16.57;62.73;95578.53;5008584;28;20197;-81
2022/09/02 08:04:09;;;;;;;4.63;2.78;;;;;;;16.46;62.20;95587.69;5019596;28;20221;-82
2022/09/02 08:06:36;;;;;;;2.40;2.20;;;;;;;16.53;62.05;95585.97;5037717;28;20213;-82
2022/09/02 08:09:10;;;;;;;3.25;2.50;;;;;;;16.61;62.44;95585.88;5031610;28;20186;-82
2022/09/02 08:11:37;;;;;;;2.83;2.47;;;;;;;16.66;61.36;95591.34;5041524;28;20183;-82
2022/09/02 08:14:03;;;;;;;5.07;2.33;;;;;;;16.85;61.45;95587.34;5038031;28;20214;-81
2022/09/02 08:16:28;;;;;;;2.35;1.98;;;;;;;16.98;60.92;95586.69;5014354;28;20717;-82
2022/09/02 08:18:54;;;;;;;3.30;2.40;;;;;;;17.07;59.80;95584.78;5019429;28;20232;-80
2022/09/02 08:21:19;;;;;;;3.92;2.50;;;;;;;16.95;59.80;95587.88;5020733;28;20669;-81
2022/09/02 08:23:49;;;;;;;3.88;2.45;;;;;;;17.12;61.12;95588.44;5037558;28;20344;-82
2022/09/02 08:26:15;;;;;;;3.85;2.40;;;;;;;17.32;60.96;95590.47;5044649;28;20221;-81
2022/09/02 08:28:40;;;;;;;3.15;1.80;;;;;;;17.48;60.32;95587.56;5044782;28;20863;-81
2022/09/02 08:31:06;;;;;;;5.18;2.10;;;;;;;17.60;59.35;95586.06;5029746;28;20192;-81
2022/09/02 08:33:31;;;;;;;2.15;2.00;;;;;;;17.59;60.22;95589.69;5019875;28;20186;-82
2022/09/02 08:36:01;;;;;;;3.25;2.08;;;;;;;17.59;59.19;95589.69;5035535;28;20272;-82
2022/09/02 08:38:26;;;;;;;3.67;1.92;;;;;;;17.71;57.04;95584.75;5017007;28;20266;-83
2022/09/02 08:40:52;;;;;;;3.05;1.90;;;;;;;17.92;57.17;95581.25;5030585;28;20734;-83
2022/09/02 08:43:29;;;;;;;3.03;1.83;;;;;;;17.95;55.38;95583.50;5029375;28;20241;-82
2022/09/02 08:45:57;;;;;;;2.10;1.90;;;;;;;18.08;56.41;95584.41;5034973;28;20263;-82
2022/09/02 08:48:36;;;;;;;3.83;1.83;;;;;;;18.23;55.04;95584.28;5017663;28;20278;-82
2022/09/02 08:51:06;;;;;;;3.25;1.60;;;;;;;18.30;54.60;95582.50;5036136;28;20666;-82
2022/09/02 08:53:35;;;;;;;3.45;2.10;;;;;;;18.47;53.64;95576.94;5031150;28;20192;-83
2022/09/02 08:56:02;;;;;;;5.10;2.17;;;;;;;18.47;52.08;95571.69;5031677;28;20240;-83
2022/09/02 08:58:37;;;;;;;5.70;1.80;;;;;;;18.64;53.44;95562.41;5012059;28;20182;-82
2022/09/02 09:01:08;;;;;;;3.10;2.00;;;;;;;18.64;51.01;95583.44;5016138;28;20213;-83
2022/09/02 09:03:44;;;;;;;2.50;1.23;;;;;;;18.46;50.19;95575.28;5034940;28;20191;-82
2022/09/02 09:06:26;;;;;;;2.92;1.80;;;;;;;18.50;50.60;95566.00;5026019;28;20214;-83
2022/09/02 09:09:00;;;;;;;3.00;1.50;;;;;;;18.78;51.80;95565.94;5042798;28;20211;-82
2022/09/02 09:11:37;;;;;;;3.35;1.48;;;;;;;18.58;50.93;95560.59;5035938;28;20348;-82
2022/09/02 09:14:27;;;;;;;3.05;1.75;;;;;;;18.86;48.96;95565.75;5024816;28;20186;-82
2022/09/02 09:16:59;;;;;;;1.67;1.58;;;;;;;18.88;48.26;95561.91;5035406;28;20202;-81
2022/09/02 09:19:36;;;;;;;2.92;1.63;;;;;;;18.86;48.44;95568.38;5037385;28;20201;-81
2022/09/02 09:22:02;;;;;;;2.17;1.30;;;;;;;18.84;47.39;95560.69;5038631;28;20236;-81
2022/09/02 09:24:43;;;;;;;2.30;1.50;;;;;;;18.84;47.65;95559.91;5036572;28;20253;-81
2022/09/02 09:27:12;;;;;;;1.85;1.35;;;;;;;19.00;46.46;95561.34;5037014;28;20665;-81
2022/09/02 09:29:38;;;;;;;3.45;1.50;;;;;;;19.17;46.71;95562.56;5019766;28;20182;-79
2022/09/02 09:32:04;;;;;;;4.25;1.40;;;;;;;19.10;46.12;95554.69;5028457;28;20225;-80
2022/09/02 09:34:51;;;;;;;3.17;1.38;;;;;;;19.34;47.08;95548.00;5021385;28;20529;-80
2022/09/02 09:37:41;;;;;;;1.65;1.40;;;;;;;19.37;46.50;95558.16;5032898;28;20202;-81
2022/09/02 09:40:20;;;;;;;2.60;1.38;;;;;;;19.36;43.69;95564.44;5014418;28;20206;-81
2022/09/02 09:42:46;;;;;;;2.08;1.45;;;;;;;19.44;44.32;95561.63;5035250;28;20194;-81
2022/09/02 09:45:19;;;;;;;2.20;1.42;;;;;;;19.53;43.74;95562.22;5039419;28;20217;-80
2022/09/02 09:48:06;;;;;;;2.15;1.38;;;;;;;19.48;44.35;95560.19;5039841;28;20728;-80
2022/09/02 09:50:31;;;;;;;3.05;1.15;;;;;;;19.49;43.91;95545.19;5038961;28;20189;-81
2022/09/02 09:53:33;;;;;;;2.80;1.30;;;;;;;19.24;44.14;95548.41;5020958;28;20533;-79
2022/09/02 09:56:14;;;;;;;2.75;1.38;;;;;;;19.52;43.66;95555.31;4971015;28;20226;-78
2022/09/02 09:58:40;;;;;;;2.63;1.50;;;;;;;19.73;43.84;95539.34;4982243;28;20342;-78
2022/09/02 10:01:17;;;;;;;1.50;1.40;;;;;;;19.78;42.76;95546.59;4991273;28;20278;-77
2022/09/02 10:03:51;;;;;;;1.60;1.45;;;;;;;19.75;43.60;95539.13;4981197;28;20294;-79
2022/09/02 10:06:24;;;;;;;1.50;1.40;;;;;;;19.88;42.81;95547.03;4990766;28;20821;-78
2022/09/02 10:08:50;;;;;;;3.55;1.52;;;;;;;19.89;42.97;95540.75;4986941;28;20287;-78
2022/09/02 10:11:29;;;;;;;2.20;1.13;;;;;;;19.88;42.53;95539.13;4987455;28;20274;-80
2022/09/02 10:14:00;;;;;;;2.30;1.73;;;;;;;19.85;41.24;95542.16;4979340;28;20218;-80
2022/09/02 10:16:41;;;;;;;2.03;1.40;;;;;;;19.97;42.87;95545.00;4997624;28;20393;-80
2022/09/02 10:19:48;;;;;;;2.50;1.50;;;;;;;20.13;43.21;95536.63;4989957;28;20330;-79
2022/09/02 10:22:35;;;;;;;1.27;1.17;;;;;;;20.16;44.45;95541.50;4882046;29;20664;-81
2022/09/02 10:25:08;;;;;;;2.10;1.58;;;;;;;20.29;42.39;95543.25;4863247;29;20258;-79
2022/09/02 10:27:42;;;;;;;2.20;1.50;;;;;;;20.35;42.35;95537.97;4867233;29;20216;-79
2022/09/02 10:30:17;;;;;;;2.25;1.35;;;;;;;20.24;42.39;95532.53;4895777;29;20579;-79
2022/09/02 10:33:22;;;;;;;4.93;1.50;;;;;;;20.20;42.35;95526.06;4920710;29;20247;-80
2022/09/02 10:36:11;;;;;;;3.83;1.90;;;;;;;20.19;43.36;95527.06;4923073;29;20296;-80
2022/09/02 10:38:43;;;;;;;1.73;1.38;;;;;;;20.37;42.39;95530.66;4919743;29;20680;-79
2022/09/02 10:41:21;;;;;;;2.55;1.23;;;;;;;20.33;42.39;95521.56;4916200;29;20198;-80
2022/09/02 10:43:54;;;;;;;1.83;1.40;;;;;;;20.36;42.54;95515.84;4909149;29;20198;-79
2022/09/02 10:46:21;;;;;;;1.98;1.55;;;;;;;20.42;41.61;95516.84;4912723;29;20238;-80
2022/09/02 10:48:49;;;;;;;2.30;1.45;;;;;;;20.45;42.05;95513.00;4902383;29;20193;-79
2022/09/02 10:51:21;;;;;;;2.50;1.27;;;;;;;20.60;42.22;95503.00;4928502;29;20241;-81
2022/09/02 10:53:59;;;;;;;1.85;1.60;;;;;;;20.69;43.00;95506.22;4914943;29;20566;-80
2022/09/02 10:56:30;;;;;;;2.67;1.60;;;;;;;20.56;41.28;95499.16;4992046;28;20213;-81
2022/09/02 10:59:04;;;;;;;1.67;1.52;;;;;;;20.58;41.62;95494.47;5038331;28;20178;-80
2022/09/02 11:01:32;;;;;;;1.63;1.35;;;;;;;20.73;43.07;95499.47;5028291;28;20188;-82
2022/09/02 11:04:07;;;;;;;1.70;1.30;;;;;;;20.95;41.58;95497.34;5020372;28;20666;-81
2022/09/02 11:06:40;;;;;;;2.40;1.30;;;;;;;20.84;41.17;95496.97;5042530;28;20201;-81
2022/09/02 11:09:32;;;;;;;1.73;1.40;;;;;;;20.88;42.33;95494.72;5013234;28;20183;-82
2022/09/02 11:12:04;;;;;;;1.73;1.42;;;;;;;20.94;41.65;95496.53;5035478;28;20188;-81
2022/09/02 11:14:36;;;;;;;2.03;1.30;;;;;;;21.00;41.78;95487.72;5038045;28;20174;-80
2022/09/02 11:17:23;;;;;;;2.55;1.60;;;;;;;20.97;41.80;95485.53;5026017;28;20198;-80
2022/09/02 11:19:49;;;;;;;1.42;1.17;;;;;;;20.89;41.86;95498.97;5024039;28;21028;-80
2022/09/02 11:22:34;;;;;;;2.35;1.40;;;;;;;21.01;40.72;95485.91;5037605;28;20189;-80
2022/09/02 11:25:04;;;;;;;1.40;1.30;;;;;;;21.17;41.14;95486.19;5017431;28;20601;-80
2022/09/02 11:27:37;;;;;;;3.38;1.17;;;;;;;20.73;41.10;95473.91;5033360;28;20760;-80
2022/09/02 11:30:07;;;;;;;2.38;1.10;;;;;;;20.94;41.26;95485.97;5039068;28;20197;-81
2022/09/02 11:32:49;;;;;;;4.10;1.50;;;;;;;21.20;39.86;95477.84;5033556;28;20251;-80
2022/09/02 11:35:25;;;;;;;4.70;1.42;;;;;;;21.40;39.67;95484.84;5028138;28;20728;-80
2022/09/02 11:38:28;;;;;;;4.55;1.63;;;;;;;21.16;41.00;95481.94;5010252;28;20226;-80
2022/09/02 11:40:56;;;;;;;2.85;1.52;;;;;;;21.51;40.07;95481.47;5035459;28;20563;-79
2022/09/02 11:43:32;;;;;;;3.15;1.52;;;;;;;21.27;39.54;95484.94;5046152;28;20198;-79
2022/09/02 11:46:19;;;;;;;1.52;1.25;;;;;;;21.37;39.34;95487.88;5021092;28;20708;-80
2022/09/02 11:49:09;;;;;;;2.53;1.20;;;;;;;21.49;39.56;95483.53;5044520;28;20265;-81
2022/09/02 11:51:51;;;;;;;1.60;1.27;;;;;;;21.62;38.29;95483.41;5012340;28;20203;-80
2022/09/02 11:54:18;;;;;;;2.22;1.30;;;;;;;21.73;38.56;95484.50;5019033;28;20186;-81
2022/09/02 11:56:49;;;;;;;1.27;1.10;;;;;;;21.62;37.60;95487.88;5022132;28;20775;-82
2022/09/02 11:59:20;;;;;;;3.08;1.05;;;;;;;21.71;37.94;95486.56;5022441;28;20210;-82
2022/09/02 12:01:48;;;;;;;1.40;1.30;;;;;;;21.60;37.66;95487.28;5035185;28;20229;-81